Time;durP1;ratioP1;P1;durP2;ratioP2;P2;SDS_P1;SDS_P2;PMS_P1;PMS_P2;Temp;Humidity;BMP_temperature;BMP_pressure;BME280_temperature;BME280_humidity;BME280_pressure;Samples;Min_cycle;Max_cycle;Signal;HPM_P1;HPM_P2
2024/03/22 00:03:44;;;;;;;42.80;26.50;;;;;;;10.13;70.19;98813.52;435083;1256;108424;-40
2024/03/22 00:13:51;;;;;;;36.50;25.70;;;;;;;10.16;70.79;98825.28;435220;1256;100607;-40
2024/03/22 00:23:58;;;;;;;37.90;24.40;;;;;;;10.11;71.55;98816.11;435346;1256;113443;-41
2024/03/22 00:34:04;;;;;;;36.20;22.20;;;;;;;10.10;71.80;98811.00;435305;1256;108035;-40
2024/03/22 00:44:11;;;;;;;35.40;21.40;;;;;;;10.13;72.37;98796.77;435016;1254;100600;-41
2024/03/22 00:54:17;;;;;;;30.50;21.50;;;;;;;10.17;72.48;98793.27;435237;1263;109484;-41
2024/03/22 01:04:24;;;;;;;33.40;21.00;;;;;;;10.21;73.04;98792.65;435320;1256;99422;-40
2024/03/22 01:14:30;;;;;;;26.90;19.00;;;;;;;10.17;74.04;98802.84;435344;1257;114046;-39
2024/03/22 01:24:37;;;;;;;29.70;19.30;;;;;;;10.12;74.60;98805.48;435179;1256;109307;-40
2024/03/22 01:34:44;;;;;;;27.40;18.00;;;;;;;10.09;75.82;98806.55;435211;1257;99619;-41
2024/03/22 01:44:51;;;;;;;36.00;20.50;;;;;;;10.07;76.84;98804.58;435261;1256;108625;-40
2024/03/22 01:54:57;;;;;;;37.20;22.30;;;;;;;10.03;76.99;98798.13;435314;1257;100682;-39
2024/03/22 02:05:12;;;;;;;34.00;22.00;;;;;;;9.90;77.29;98797.95;435356;1255;112895;-40
2024/03/22 02:15:19;;;;;;;29.20;20.10;;;;;;;9.86;77.91;98799.95;435328;1263;108024;-41
2024/03/22 02:25:26;;;;;;;31.30;19.90;;;;;;;9.85;78.28;98799.99;435219;1256;100571;-39
2024/03/22 02:35:32;;;;;;;30.50;21.60;;;;;;;9.82;78.70;98794.23;435321;1256;109584;-40
2024/03/22 02:45:39;;;;;;;22.40;17.00;;;;;;;9.84;78.52;98780.05;435992;1256;100623;-39
2024/03/22 02:55:46;;;;;;;25.80;18.10;;;;;;;9.81;78.75;98780.45;435253;1256;112640;-40
2024/03/22 03:15:59;;;;;;;22.90;17.10;;;;;;;9.66;78.80;98778.73;435360;1255;100657;-40
2024/03/22 03:26:06;;;;;;;22.90;16.60;;;;;;;9.67;78.82;98779.07;435298;1251;106849;-39
2024/03/22 03:36:13;;;;;;;28.50;19.30;;;;;;;9.73;79.07;98786.13;435210;1254;100565;-40
2024/03/22 03:46:19;;;;;;;26.70;18.70;;;;;;;9.65;79.55;98775.97;435142;1257;113150;-40
2024/03/22 03:56:26;;;;;;;27.00;19.20;;;;;;;9.56;79.72;98765.68;435144;1257;107403;-40
2024/03/22 04:06:32;;;;;;;24.60;17.00;;;;;;;9.50;79.80;98759.16;435248;1251;100587;-39
2024/03/22 04:16:39;;;;;;;22.00;16.00;;;;;;;9.53;79.86;98766.23;435178;1257;107655;-41
2024/03/22 04:26:45;;;;;;;26.60;16.00;;;;;;;9.50;80.30;98770.00;435214;1251;100597;-40
2024/03/22 04:36:53;;;;;;;28.30;18.90;;;;;;;9.41;80.98;98777.84;435314;1263;112398;-40
2024/03/22 04:46:59;;;;;;;28.90;19.10;;;;;;;9.23;81.05;98778.17;435242;1254;107847;-39
2024/03/22 04:57:05;;;;;;;23.30;17.20;;;;;;;9.13;80.79;98775.30;435209;1251;100591;-40
2024/03/22 05:07:12;;;;;;;24.40;15.50;;;;;;;9.10;80.75;98771.77;435072;1258;108297;-42
2024/03/22 05:17:19;;;;;;;24.10;16.70;;;;;;;9.08;80.93;98771.87;435761;1257;100132;-40
2024/03/22 05:27:26;;;;;;;22.70;15.60;;;;;;;9.04;80.89;98774.98;435714;1257;112156;-40
2024/03/22 05:37:33;;;;;;;32.50;20.50;;;;;;;8.99;80.95;98773.81;435445;1263;564758;-40
2024/03/22 05:47:39;;;;;;;34.50;20.70;;;;;;;8.98;80.82;98770.45;435200;1251;100569;-41
2024/03/22 05:57:46;;;;;;;30.10;19.10;;;;;;;9.05;80.82;98774.86;435302;1254;108005;-40
2024/03/22 06:07:51;;;;;;;30.90;19.10;;;;;;;9.17;80.78;98772.14;435143;1257;100642;-41
2024/03/22 06:17:58;;;;;;;36.50;22.30;;;;;;;9.10;80.95;98773.58;435250;1255;112551;-40
2024/03/22 06:28:04;;;;;;;37.40;23.20;;;;;;;9.01;81.11;98780.30;435666;1256;108481;-40
2024/03/22 06:38:10;;;;;;;27.50;16.80;;;;;;;8.92;81.02;98788.66;435145;1258;100578;-41
2024/03/22 06:48:16;;;;;;;28.00;16.20;;;;;;;8.90;80.99;98782.59;435140;1254;107555;-41
2024/03/22 06:58:26;;;;;;;64.20;18.50;;;;;;;8.92;80.96;98783.22;435293;1251;100607;-40
2024/03/22 07:08:33;;;;;;;30.80;17.50;;;;;;;8.83;81.11;98780.46;435274;1256;114114;-40
2024/03/22 07:18:40;;;;;;;34.20;18.40;;;;;;;8.78;81.00;98779.16;435166;1255;108265;-40
2024/03/22 07:28:47;;;;;;;28.70;16.40;;;;;;;8.79;80.88;98773.89;435209;1250;99404;-41
2024/03/22 07:38:54;;;;;;;27.60;16.60;;;;;;;8.77;81.10;98778.05;435227;1252;107326;-40
2024/03/22 07:49:01;;;;;;;28.60;18.00;;;;;;;8.72;81.54;98779.36;435168;1253;100575;-39
2024/03/22 07:59:08;;;;;;;27.90;17.20;;;;;;;8.71;81.58;98779.69;435317;1251;111679;-39
2024/03/22 08:09:15;;;;;;;24.60;16.30;;;;;;;8.69;81.79;98785.22;435160;1254;108148;-40
2024/03/22 08:19:23;;;;;;;26.20;16.50;;;;;;;8.77;82.01;98781.29;435226;1253;100590;-40
2024/03/22 08:29:30;;;;;;;25.40;16.20;;;;;;;8.89;82.31;98780.86;435114;1254;107659;-41
2024/03/22 08:39:36;;;;;;;31.10;17.90;;;;;;;8.91;82.81;98777.88;435267;1256;99377;-40
2024/03/22 08:49:44;;;;;;;26.90;17.80;;;;;;;8.88;83.01;98773.20;435191;1261;113010;-40
2024/03/22 08:59:51;;;;;;;26.20;17.80;;;;;;;9.11;83.47;98765.30;435326;1252;107890;-40
2024/03/22 09:09:58;;;;;;;24.80;16.50;;;;;;;9.61;83.47;98752.88;435273;1251;100593;-41
2024/03/22 09:20:07;;;;;;;30.20;18.80;;;;;;;9.70;83.21;98750.86;435270;1254;108512;-41
2024/03/22 09:30:15;;;;;;;25.10;15.80;;;;;;;9.70;83.39;98738.39;435237;1256;99311;-43
2024/03/22 09:50:27;;;;;;;19.00;12.00;;;;;;;10.78;82.42;98717.39;435082;1254;107776;-39
2024/03/22 10:00:33;;;;;;;18.90;10.30;;;;;;;11.13;81.96;98703.07;435180;1256;100597;-40
2024/03/22 10:10:40;;;;;;;16.20;11.90;;;;;;;11.71;80.77;98695.19;435305;1255;106861;-41
2024/03/22 10:20:47;;;;;;;12.20;9.00;;;;;;;12.05;79.97;98689.65;435243;1256;100599;-41
2024/03/22 10:30:53;;;;;;;12.50;8.60;;;;;;;12.97;79.24;98673.80;435396;1256;112685;-41
2024/03/22 10:41:00;;;;;;;32.30;9.30;;;;;;;12.76;76.82;98668.28;435255;1255;106639;-40
2024/03/22 10:51:05;;;;;;;8.70;7.00;;;;;;;12.85;76.90;98658.71;435312;1253;99350;-40
2024/03/22 11:01:12;;;;;;;11.40;9.10;;;;;;;12.90;75.72;98642.40;435254;1251;107184;-40
2024/03/22 11:21:26;;;;;;;8.80;7.00;;;;;;;13.10;74.60;98616.55;435256;1256;112725;-41
2024/03/22 11:31:33;;;;;;;14.70;8.50;;;;;;;13.09;73.50;98614.04;435220;1256;108066;-39
2024/03/22 11:41:40;;;;;;;9.70;7.30;;;;;;;12.78;73.21;98610.91;435378;1255;99286;-40
2024/03/22 11:51:47;;;;;;;10.60;6.80;;;;;;;13.14;71.72;98602.84;435314;1253;107805;-40
2024/03/22 12:12:01;;;;;;;8.90;4.40;;;;;;;12.91;70.88;98588.26;435201;1256;116500;-41
2024/03/22 12:22:09;;;;;;;7.00;4.60;;;;;;;13.06;70.11;98577.31;435174;1254;109945;-39
2024/03/22 12:32:16;;;;;;;13.10;6.00;;;;;;;12.85;68.15;98555.55;435282;1250;100597;-41
2024/03/22 12:42:23;;;;;;;8.70;6.40;;;;;;;12.77;68.49;98542.34;435232;1256;109390;-39
2024/03/22 12:52:29;;;;;;;18.30;8.40;;;;;;;12.76;67.99;98532.34;435380;1256;100590;-41
2024/03/22 13:02:35;;;;;;;7.10;6.30;;;;;;;12.75;68.58;98526.05;435257;1256;113400;-40
2024/03/22 13:12:42;;;;;;;7.80;6.40;;;;;;;12.77;68.57;98510.60;435226;1256;109031;-41
2024/03/22 13:22:49;;;;;;;10.10;7.00;;;;;;;12.73;67.92;98508.80;435294;1253;100596;-40
2024/03/22 13:32:56;;;;;;;10.00;6.80;;;;;;;12.67;67.93;98503.15;435166;1256;109429;-40
2024/03/22 13:43:02;;;;;;;8.90;7.10;;;;;;;12.67;67.89;98493.55;435306;1250;100617;-40
2024/03/22 13:53:10;;;;;;;10.90;6.80;;;;;;;12.56;67.67;98478.41;435256;1256;112541;-40
2024/03/22 14:03:17;;;;;;;11.10;7.50;;;;;;;12.63;67.45;98463.48;435207;1256;107329;-40
2024/03/22 14:13:24;;;;;;;10.90;6.80;;;;;;;12.69;67.40;98459.02;435271;1251;99264;-41
2024/03/22 14:23:31;;;;;;;28.90;8.40;;;;;;;12.56;67.12;98448.70;435273;1255;108317;-41
2024/03/22 14:33:37;;;;;;;11.70;8.00;;;;;;;12.41;67.41;98435.83;435407;1255;99372;-40
2024/03/22 14:43:47;;;;;;;15.50;7.40;;;;;;;12.32;67.70;98425.20;435237;1256;113569;-40
2024/03/22 14:53:54;;;;;;;11.00;7.60;;;;;;;12.11;67.57;98413.95;435252;1253;108450;-40
2024/03/22 15:04:01;;;;;;;16.30;8.10;;;;;;;11.93;68.09;98406.50;435232;1252;100599;-40
2024/03/22 15:14:06;;;;;;;14.70;8.00;;;;;;;11.90;68.38;98392.84;435330;1254;108511;-41
2024/03/22 15:34:22;;;;;;;14.80;9.50;;;;;;;11.65;68.93;98377.71;435264;1255;113367;-40
2024/03/22 15:44:29;;;;;;;20.50;11.00;;;;;;;11.53;69.22;98372.45;435388;1255;108130;-40
2024/03/22 15:54:35;;;;;;;21.30;13.30;;;;;;;11.43;69.32;98371.41;435283;1257;99374;-41
2024/03/22 16:04:41;;;;;;;25.90;14.70;;;;;;;11.29;69.46;98364.19;435049;1256;108944;-39
2024/03/22 16:14:48;;;;;;;23.40;14.70;;;;;;;11.12;69.72;98351.58;435497;1256;100635;-41
2024/03/22 16:24:55;;;;;;;28.30;19.60;;;;;;;11.00;69.96;98341.81;435182;1254;113750;-40
2024/03/22 16:35:01;;;;;;;43.80;24.80;;;;;;;10.94;70.36;98316.73;435181;1250;107716;-41
2024/03/22 16:45:07;;;;;;;39.40;26.30;;;;;;;10.86;70.71;98312.63;435262;1256;99940;-41
2024/03/22 16:55:16;;;;;;;41.30;24.40;;;;;;;10.76;71.04;98320.45;435304;1256;107803;-40
2024/03/22 17:05:22;;;;;;;34.30;20.60;;;;;;;10.67;71.31;98317.60;435286;1256;99369;-41
2024/03/22 17:15:29;;;;;;;28.50;18.90;;;;;;;10.60;71.42;98310.20;435193;1256;112866;-40
2024/03/22 17:35:42;;;;;;;29.10;16.40;;;;;;;10.60;71.59;98273.51;435194;1253;100581;-40
2024/03/22 17:45:56;;;;;;;32.30;17.40;;;;;;;10.61;71.94;98268.81;434848;1265;528113;-41
2024/03/22 17:56:02;;;;;;;31.00;17.30;;;;;;;10.55;72.19;98259.69;435506;1256;99277;-41
2024/03/22 18:16:14;;;;;;;33.00;21.90;;;;;;;10.49;72.71;98253.19;435241;1256;108039;-40
2024/03/22 18:26:21;;;;;;;37.00;21.90;;;;;;;10.56;72.98;98250.50;435258;1256;99617;-41
2024/03/22 18:36:28;;;;;;;39.20;22.30;;;;;;;10.56;73.38;98238.39;435348;1256;108109;-41
2024/03/22 18:46:33;;;;;;;43.50;24.50;;;;;;;10.49;73.63;98230.18;435344;1256;100634;-40
2024/03/22 18:56:40;;;;;;;51.00;26.10;;;;;;;10.47;73.84;98216.11;435312;1256;113184;-40
2024/03/22 19:06:49;;;;;;;43.70;25.80;;;;;;;10.54;73.99;98209.53;435164;1254;107323;-40
2024/03/22 19:16:55;;;;;;;42.10;22.80;;;;;;;10.54;74.17;98199.97;434794;1251;100564;-40
2024/03/22 19:47:15;;;;;;;45.10;21.00;;;;;;;10.45;73.85;98174.67;435198;1254;112594;-40
2024/03/22 19:57:21;;;;;;;34.60;20.80;;;;;;;10.51;73.76;98168.57;435131;1256;108079;-40
2024/03/22 20:07:29;;;;;;;33.90;19.90;;;;;;;10.50;73.76;98163.91;435235;1256;99313;-41
2024/03/22 20:17:49;;;;;;;30.60;18.20;;;;;;;10.42;73.55;98156.81;435469;1256;109464;-40
2024/03/22 20:27:59;;;;;;;27.70;15.70;;;;;;;10.33;73.39;98152.21;435151;1254;99401;-41
2024/03/22 20:38:06;;;;;;;28.50;17.10;;;;;;;10.26;73.27;98149.73;435153;1256;113340;-41
2024/03/22 20:48:12;;;;;;;29.20;16.00;;;;;;;10.30;72.84;98140.69;435343;1256;108791;-40
2024/03/22 20:58:19;;;;;;;26.00;14.80;;;;;;;10.34;72.57;98138.42;435311;1256;100568;-40
2024/03/22 21:08:25;;;;;;;29.80;15.30;;;;;;;10.31;72.24;98134.48;435294;1257;107906;-41
2024/03/22 21:18:33;;;;;;;29.00;15.10;;;;;;;10.28;71.80;98115.77;435236;1264;100582;-40
2024/03/22 21:28:39;;;;;;;23.40;13.60;;;;;;;10.23;71.54;98110.40;435070;1256;111827;-39
2024/03/22 21:39:00;;;;;;;28.00;15.50;;;;;;;10.16;71.40;98107.93;435136;1256;108606;-41
2024/03/22 21:49:07;;;;;;;26.40;13.60;;;;;;;10.12;71.26;98094.92;435269;1255;99292;-42
2024/03/22 21:59:27;;;;;;;19.30;12.70;;;;;;;10.11;71.01;98083.86;435352;1255;108529;-39
2024/03/22 22:09:33;;;;;;;18.10;11.30;;;;;;;10.16;70.85;98077.34;435325;1264;99883;-40
2024/03/22 22:19:40;;;;;;;26.10;12.90;;;;;;;10.27;70.68;98068.92;435155;1256;112254;-40
2024/03/22 22:29:47;;;;;;;22.40;14.00;;;;;;;10.31;70.74;98061.23;435165;1260;107857;-40
2024/03/22 22:39:54;;;;;;;17.60;11.80;;;;;;;10.29;70.48;98059.40;435312;1257;100575;-40
2024/03/22 22:50:01;;;;;;;20.70;13.90;;;;;;;10.23;70.54;98059.21;435370;1263;108575;-40
2024/03/22 23:10:15;;;;;;;25.10;13.40;;;;;;;10.04;70.61;98038.95;435258;1255;113479;-41
2024/03/22 23:20:21;;;;;;;25.30;14.50;;;;;;;9.93;70.86;98031.43;435270;1257;108187;-40
2024/03/22 23:30:28;;;;;;;19.90;13.50;;;;;;;9.86;71.05;98027.67;435266;1251;100580;-40
2024/03/22 23:40:34;;;;;;;23.50;15.10;;;;;;;9.90;71.42;98020.48;435150;1263;108417;-41
2024/03/22 23:50:41;;;;;;;23.70;14.80;;;;;;;9.81;71.74;98010.54;435281;1254;99344;-40
